Time;durP1;ratioP1;P1;durP2;ratioP2;P2;SDS_P1;SDS_P2;PMS_P1;PMS_P2;Temp;Humidity;BMP_temperature;BMP_pressure;BME280_temperature;BME280_humidity;BME280_pressure;Samples;Min_cycle;Max_cycle;Signal;HPM_P1;HPM_P2
2022/11/17 00:02:07;;;;;;;12.85;8.10;;;;;;;16.11;51.55;91889.84;5017697;28;20152;-90
2022/11/17 00:04:32;;;;;;;10.88;7.45;;;;;;;16.12;51.55;91888.59;5005453;28;20052;-90
2022/11/17 00:06:58;;;;;;;11.57;8.60;;;;;;;16.10;52.11;91875.50;5053071;28;20040;-90
2022/11/17 00:09:23;;;;;;;10.98;7.70;;;;;;;16.13;51.61;91883.88;5050599;28;20036;-89
2022/11/17 00:14:35;;;;;;;12.90;7.97;;;;;;;16.09;51.87;91881.47;5036208;28;20127;-90
2022/11/17 00:17:01;;;;;;;10.07;7.07;;;;;;;16.13;51.87;91875.69;5003992;28;20245;-89
2022/11/17 00:22:11;;;;;;;9.88;6.38;;;;;;;16.13;51.42;91872.97;5035838;28;20363;-90
2022/11/17 00:24:36;;;;;;;10.15;7.03;;;;;;;16.11;51.63;91855.16;5017353;28;20049;-90
2022/11/17 00:27:01;;;;;;;9.40;6.55;;;;;;;16.11;51.80;91857.13;5048218;28;20074;-89
2022/11/17 00:29:27;;;;;;;11.05;6.75;;;;;;;16.08;51.92;91850.75;5068578;28;20040;-90
2022/11/17 00:34:37;;;;;;;7.78;6.22;;;;;;;16.10;51.98;91850.97;5055713;28;20039;-89
2022/11/17 00:37:02;;;;;;;8.32;5.72;;;;;;;16.10;51.63;91850.22;5035864;28;20060;-89
2022/11/17 00:39:28;;;;;;;8.55;6.15;;;;;;;16.09;51.77;91854.22;5052842;28;20036;-90
2022/11/17 00:41:54;;;;;;;8.57;6.13;;;;;;;16.08;51.79;91861.66;5026984;28;20034;-90
2022/11/17 00:44:19;;;;;;;10.45;5.72;;;;;;;16.13;51.38;91859.34;5000090;28;20399;-90
2022/11/17 00:46:45;;;;;;;9.18;6.22;;;;;;;16.09;51.27;91854.22;5033220;28;20115;-90
2022/11/17 00:49:11;;;;;;;9.82;6.25;;;;;;;16.09;51.53;91852.22;5048362;28;20479;-89
2022/11/17 00:51:36;;;;;;;7.60;5.75;;;;;;;16.09;51.29;91844.03;5032563;28;20118;-89
2022/11/17 00:54:02;;;;;;;7.75;5.65;;;;;;;16.09;51.35;91846.03;5036487;28;20025;-90
2022/11/17 00:56:28;;;;;;;7.97;5.53;;;;;;;16.08;51.37;91839.84;5030060;28;20033;-89
2022/11/17 00:58:53;;;;;;;7.20;5.60;;;;;;;16.09;51.36;91846.03;5049514;28;20102;-90
2022/11/17 01:01:19;;;;;;;9.95;5.43;;;;;;;16.06;51.71;91842.38;5031899;28;20036;-90
2022/11/17 01:03:44;;;;;;;9.43;6.00;;;;;;;16.06;51.89;91845.09;5032719;28;20044;-90
2022/11/17 01:06:11;;;;;;;6.82;5.40;;;;;;;16.06;51.57;91844.38;5031282;28;20045;-90
2022/11/17 01:08:36;;;;;;;7.78;5.28;;;;;;;16.09;51.46;91835.88;5016247;28;20036;-90
2022/11/17 01:11:14;;;;;;;7.43;5.32;;;;;;;16.08;51.56;91845.31;5028700;28;20041;-90
2022/11/17 01:13:42;;;;;;;6.75;4.80;;;;;;;16.10;51.41;91853.69;5052718;28;20037;-90
2022/11/17 01:16:13;;;;;;;7.60;5.28;;;;;;;16.08;51.65;91850.03;5036669;28;20032;-90
2022/11/17 01:18:39;;;;;;;;;;;;;;;16.09;51.28;91848.75;5028178;28;20456;-90
2022/11/17 01:21:08;;;;;;;8.05;5.00;;;;;;;16.06;51.28;91841.66;5041499;28;19999;-90
2022/11/17 01:23:34;;;;;;;6.78;4.93;;;;;;;16.07;51.35;91843.84;5004178;28;20766;-90
2022/11/17 01:26:02;;;;;;;7.75;5.25;;;;;;;16.06;51.58;91825.28;5027562;28;20119;-90
2022/11/17 01:28:28;;;;;;;5.65;4.22;;;;;;;16.06;51.54;91833.47;5035162;28;20032;-90
2022/11/17 01:31:04;;;;;;;6.25;4.40;;;;;;;16.04;51.40;91836.00;5034884;28;20041;-90
2022/11/17 01:33:29;;;;;;;6.43;4.82;;;;;;;16.04;51.38;91819.63;5019453;28;20032;-89
2022/11/17 01:35:55;;;;;;;5.68;4.43;;;;;;;16.03;51.46;91824.34;5035433;28;20052;-90
2022/11/17 01:38:20;;;;;;;5.50;4.18;;;;;;;16.02;51.24;91814.72;5034745;28;20042;-90
2022/11/17 01:40:46;;;;;;;6.30;4.47;;;;;;;16.03;51.25;91801.81;5035089;28;20033;-89
2022/11/17 01:43:11;;;;;;;5.47;4.60;;;;;;;16.01;51.11;91802.38;5034074;28;20072;-90
2022/11/17 01:45:36;;;;;;;6.60;4.63;;;;;;;16.01;51.24;91799.66;5016118;28;20037;-90
2022/11/17 01:48:02;;;;;;;5.85;4.13;;;;;;;16.03;51.30;91799.09;4999612;28;20040;-90
2022/11/17 01:50:30;;;;;;;6.32;4.60;;;;;;;16.04;51.50;91795.84;4974618;28;20050;-90
2022/11/17 01:52:58;;;;;;;6.72;3.90;;;;;;;16.05;51.57;91785.66;4990690;28;20282;-90
2022/11/17 01:55:25;;;;;;;6.15;4.55;;;;;;;16.03;51.45;91794.38;4977214;28;20033;-89
2022/11/17 01:57:57;;;;;;;6.35;4.20;;;;;;;16.00;51.32;91790.03;4994305;28;20112;-90
2022/11/17 02:00:23;;;;;;;6.15;4.40;;;;;;;16.02;51.69;91795.66;4993679;28;20049;-90
2022/11/17 02:02:49;;;;;;;5.68;3.47;;;;;;;16.03;51.16;91796.38;4976981;28;20044;-90
2022/11/17 02:05:27;;;;;;;6.28;4.22;;;;;;;16.04;51.66;91800.56;5010380;28;20037;-90
2022/11/17 02:07:53;;;;;;;8.20;4.07;;;;;;;16.03;51.41;91799.09;4994198;28;20037;-90
2022/11/17 02:10:19;;;;;;;5.88;3.97;;;;;;;16.01;51.45;91802.38;4973952;28;20542;-90
2022/11/17 02:12:44;;;;;;;5.13;3.85;;;;;;;16.02;51.33;91792.22;4974335;28;20042;-90
2022/11/17 02:15:10;;;;;;;4.75;3.35;;;;;;;16.02;51.35;91800.38;4992203;28;20041;-91
2022/11/17 02:17:41;;;;;;;4.25;3.15;;;;;;;16.02;51.31;91792.22;4976491;28;20140;-90
2022/11/17 02:20:12;;;;;;;5.55;4.30;;;;;;;16.01;51.32;91791.47;4995167;28;20045;-90
2022/11/17 02:23:08;;;;;;;3.85;3.17;;;;;;;16.03;51.05;91788.94;5014657;28;20060;-89
2022/11/17 02:25:58;;;;;;;4.78;3.72;;;;;;;16.02;51.48;91795.66;5043467;28;20041;-90
2022/11/17 02:28:48;;;;;;;5.07;3.72;;;;;;;16.02;51.28;91794.94;5047806;28;20033;-90
2022/11/17 02:31:32;;;;;;;4.97;3.67;;;;;;;16.02;51.28;91803.81;5019493;28;20132;-90
2022/11/17 02:34:28;;;;;;;4.35;3.10;;;;;;;16.01;51.19;91801.66;5043947;28;20275;-90
2022/11/17 02:36:58;;;;;;;5.13;3.45;;;;;;;16.00;51.35;91802.91;5044060;28;20041;-90
2022/11/17 02:39:32;;;;;;;3.28;2.83;;;;;;;15.99;51.37;91791.28;4979590;28;20380;-90
2022/11/17 02:42:03;;;;;;;3.67;2.92;;;;;;;15.99;51.29;91794.00;5019736;28;20114;-90
2022/11/17 02:44:40;;;;;;;3.90;3.00;;;;;;;16.00;51.21;91792.00;5014100;28;20515;-89
2022/11/17 02:47:10;;;;;;;4.10;3.00;;;;;;;15.99;51.44;91791.28;5014539;28;20139;-90
2022/11/17 02:49:36;;;;;;;4.65;2.92;;;;;;;15.99;51.53;91796.00;5030979;28;20043;-90
2022/11/17 02:52:02;;;;;;;6.65;3.33;;;;;;;15.97;51.03;91793.81;4983159;28;20045;-90
2022/11/17 02:54:28;;;;;;;3.83;3.10;;;;;;;15.99;51.27;91788.56;4981327;28;20033;-90
2022/11/17 02:56:54;;;;;;;5.65;3.00;;;;;;;16.00;50.88;91784.56;4994437;28;20515;-90
2022/11/17 02:59:22;;;;;;;4.85;2.60;;;;;;;15.99;51.08;91782.38;4994878;28;20091;-90
2022/11/17 03:01:55;;;;;;;3.90;2.95;;;;;;;15.98;51.31;91778.91;4983759;28;20474;-90
2022/11/17 03:04:52;;;;;;;3.30;2.70;;;;;;;15.99;51.42;91776.94;4993851;28;20057;-90
2022/11/17 03:07:33;;;;;;;5.03;3.15;;;;;;;16.01;51.14;91779.84;5038869;28;20045;-90
2022/11/17 03:10:07;;;;;;;3.72;2.38;;;;;;;15.99;51.44;91771.47;5050872;28;20036;-90
2022/11/17 03:12:38;;;;;;;4.03;2.92;;;;;;;16.02;51.27;91773.84;5051419;28;20525;-90
2022/11/17 03:15:12;;;;;;;3.20;2.30;;;;;;;15.99;51.26;91774.94;5070208;28;20040;-90
2022/11/17 03:17:43;;;;;;;3.53;2.67;;;;;;;16.00;51.23;91781.13;5053736;28;20028;-90
2022/11/17 03:20:12;;;;;;;3.78;2.65;;;;;;;15.99;51.23;91777.66;5070543;28;20052;-90
2022/11/17 03:22:42;;;;;;;2.83;2.38;;;;;;;16.00;51.08;91783.84;5034743;28;20047;-90
2022/11/17 03:25:12;;;;;;;3.53;2.67;;;;;;;15.99;51.00;91785.09;5050224;28;20120;-90
2022/11/17 03:27:39;;;;;;;3.25;2.13;;;;;;;15.99;51.09;91777.66;5037596;28;20107;-90
2022/11/17 03:30:06;;;;;;;3.38;2.45;;;;;;;15.99;51.47;91787.81;5052343;28;20043;-90
2022/11/17 03:32:35;;;;;;;3.33;2.40;;;;;;;15.98;51.16;91781.66;5020083;28;20036;-90
2022/11/17 03:35:04;;;;;;;2.65;2.03;;;;;;;15.97;51.70;91785.63;5017589;28;20110;-90
2022/11/17 03:37:30;;;;;;;2.63;2.40;;;;;;;15.99;51.35;91787.81;5016829;28;20028;-90
2022/11/17 03:40:06;;;;;;;3.10;2.40;;;;;;;15.98;51.17;91784.38;5034837;28;20035;-90
2022/11/17 03:42:33;;;;;;;3.35;2.65;;;;;;;15.98;51.46;91789.81;5020880;28;20048;-89
2022/11/17 03:45:10;;;;;;;4.05;2.38;;;;;;;15.97;51.18;91777.47;5049277;28;20029;-89
2022/11/17 03:47:35;;;;;;;3.95;2.47;;;;;;;15.97;51.07;91776.72;5035838;28;20028;-90
2022/11/17 03:50:14;;;;;;;2.35;1.92;;;;;;;15.95;51.50;91782.72;5017292;28;20507;-90
2022/11/17 03:52:39;;;;;;;2.30;1.90;;;;;;;15.97;50.86;91780.19;5033066;28;20040;-90
2022/11/17 03:55:05;;;;;;;3.63;2.10;;;;;;;15.97;51.02;91774.00;5024970;28;20050;-90
2022/11/17 03:57:55;;;;;;;2.22;1.88;;;;;;;15.96;51.41;91778.72;5053267;28;20441;-90
2022/11/17 04:00:20;;;;;;;3.35;2.08;;;;;;;15.99;51.06;91771.47;5037922;28;20510;-90
2022/11/17 04:02:47;;;;;;;2.58;2.17;;;;;;;15.97;51.07;91766.56;5036815;28;20040;-90
2022/11/17 04:05:14;;;;;;;3.38;2.17;;;;;;;15.97;51.32;91769.28;5035592;28;20040;-89
2022/11/17 04:07:43;;;;;;;2.90;1.92;;;;;;;15.95;51.15;91768.34;5036220;28;20058;-90
2022/11/17 04:10:10;;;;;;;2.67;2.17;;;;;;;15.96;51.02;91773.28;5053221;28;20141;-90
2022/11/17 04:18:04;;;;;;;2.70;2.13;;;;;;;15.96;51.37;91751.47;5057713;28;20394;-90
2022/11/17 04:20:34;;;;;;;2.50;1.80;;;;;;;15.95;50.87;91747.28;5017691;28;20053;-91
2022/11/17 04:23:10;;;;;;;2.63;1.73;;;;;;;15.94;51.32;91745.81;5034087;28;20127;-91
2022/11/17 04:28:36;;;;;;;2.50;1.92;;;;;;;15.94;51.37;91754.00;5060790;28;20114;-90
2022/11/17 04:31:05;;;;;;;2.00;1.60;;;;;;;15.95;51.23;91754.72;5037576;28;20036;-91
2022/11/17 04:33:31;;;;;;;2.30;1.85;;;;;;;15.96;51.08;91748.00;5036809;28;20090;-90
2022/11/17 04:35:57;;;;;;;2.63;1.90;;;;;;;15.94;51.12;91743.09;5020061;28;20064;-90
2022/11/17 04:38:22;;;;;;;2.10;1.80;;;;;;;15.94;50.85;91739.63;5036714;28;20072;-90
2022/11/17 04:43:32;;;;;;;2.25;1.77;;;;;;;15.96;51.15;91742.56;5061742;28;20042;-90
2022/11/17 04:45:59;;;;;;;3.17;2.08;;;;;;;15.97;51.13;91735.84;5055497;28;20111;-90
2022/11/17 04:48:33;;;;;;;2.38;2.00;;;;;;;15.98;51.28;91745.50;5038095;28;20074;-89
2022/11/17 04:50:58;;;;;;;5.20;1.75;;;;;;;15.99;50.90;91736.78;5025545;28;20036;-89
2022/11/17 04:53:25;;;;;;;2.72;1.70;;;;;;;16.00;50.86;91729.34;5028586;28;20403;-90
2022/11/17 04:55:50;;;;;;;2.17;1.67;;;;;;;16.00;51.15;91726.59;5046456;28;20111;-90
2022/11/17 04:58:16;;;;;;;3.08;1.77;;;;;;;15.99;51.26;91725.88;5039536;28;20060;-89
2022/11/17 05:00:41;;;;;;;2.10;1.42;;;;;;;15.99;50.86;91728.59;5023230;28;20040;-89
2022/11/17 05:03:06;;;;;;;3.20;1.42;;;;;;;15.98;50.61;91731.84;5041974;28;20082;-89
2022/11/17 05:05:32;;;;;;;3.05;1.75;;;;;;;16.02;50.68;91721.34;5036891;28;20032;-89
2022/11/17 05:07:57;;;;;;;2.45;1.60;;;;;;;16.03;50.78;91722.78;5030915;28;20040;-88
2022/11/17 05:13:24;;;;;;;3.63;1.70;;;;;;;15.97;50.41;91717.50;5059048;28;20047;-90
2022/11/17 05:18:41;;;;;;;2.40;1.60;;;;;;;15.95;50.95;91717.31;5045233;28;20094;-90
2022/11/17 05:21:07;;;;;;;2.50;1.80;;;;;;;15.95;50.34;91717.31;5043320;28;20032;-89
2022/11/17 05:23:54;;;;;;;1.65;1.50;;;;;;;15.95;50.52;91720.03;5030824;28;20120;-90
2022/11/17 05:26:22;;;;;;;3.42;2.03;;;;;;;15.95;50.78;91720.03;5043793;28;20040;-89
2022/11/17 05:28:48;;;;;;;3.70;1.45;;;;;;;15.96;50.60;91728.94;5041782;28;20137;-88
2022/11/17 05:31:13;;;;;;;1.30;1.20;;;;;;;15.98;50.90;91712.78;5038412;28;20274;-90
2022/11/17 05:33:40;;;;;;;3.55;1.60;;;;;;;16.00;50.55;91710.97;5037726;28;20479;-91
2022/11/17 05:36:06;;;;;;;12.25;5.80;;;;;;;16.04;50.50;91713.34;5053644;28;20403;-87
2022/11/17 05:38:33;;;;;;;23.08;17.98;;;;;;;16.07;51.07;91710.28;5048344;28;20032;-92
2022/11/17 05:40:59;;;;;;;80.63;61.15;;;;;;;16.13;50.86;91707.41;5055862;28;20040;-93
2022/11/17 05:43:24;;;;;;;12.30;8.38;;;;;;;16.14;50.89;91705.41;5056270;28;20044;-92
2022/11/17 05:45:50;;;;;;;23.15;11.38;;;;;;;16.16;50.58;91694.72;5040714;28;20040;-92
2022/11/17 05:48:15;;;;;;;12.15;7.30;;;;;;;16.12;50.16;91697.78;5035932;28;20076;-89
2022/11/17 05:50:41;;;;;;;13.73;6.95;;;;;;;16.11;50.33;91691.59;5050791;28;20032;-89
2022/11/17 05:53:06;;;;;;;10.05;6.55;;;;;;;16.11;50.59;91696.31;5022153;28;20082;-91
2022/11/17 05:55:31;;;;;;;6.05;5.35;;;;;;;16.09;50.46;91707.03;5020932;28;20089;-91
2022/11/17 05:58:01;;;;;;;16.58;10.43;;;;;;;16.12;50.34;91708.69;5035263;28;20048;-89
2022/11/17 06:00:27;;;;;;;30.13;11.23;;;;;;;16.07;50.66;91698.66;5057817;28;20362;-90
2022/11/17 06:02:57;;;;;;;51.25;17.15;;;;;;;16.14;50.56;91695.25;5054503;28;20047;-88
2022/11/17 06:05:22;;;;;;;89.43;42.65;;;;;;;16.02;47.79;91691.38;5059177;28;20044;-89
2022/11/17 06:07:49;;;;;;;112.90;42.88;;;;;;;16.01;49.62;91685.19;5045559;28;20044;-90
2022/11/17 06:10:15;;;;;;;54.45;24.05;;;;;;;16.04;48.72;91691.53;5049067;28;20044;-88
2022/11/17 06:12:41;;;;;;;83.13;33.50;;;;;;;16.02;49.11;91691.38;5037011;28;20111;-88
2022/11/17 06:15:06;;;;;;;67.35;32.47;;;;;;;16.05;48.73;91690.28;5032069;28;20040;-89
2022/11/17 06:17:35;;;;;;;74.32;38.13;;;;;;;16.06;49.77;91686.28;5058214;28;20036;-86
2022/11/17 06:20:12;;;;;;;67.93;35.80;;;;;;;15.95;46.50;91692.78;5051578;28;20075;-86
2022/11/17 06:22:37;;;;;;;40.83;22.33;;;;;;;15.92;45.32;91688.41;5044596;28;20121;-90
2022/11/17 06:25:03;;;;;;;42.78;24.17;;;;;;;15.87;45.69;91691.25;5018041;28;20861;-89
2022/11/17 06:27:29;;;;;;;72.53;31.40;;;;;;;15.88;46.07;91692.72;5076261;28;20036;-92
2022/11/17 06:29:55;;;;;;;100.05;37.95;;;;;;;15.91;46.57;91697.09;5038197;28;20036;-91
2022/11/17 06:32:21;;;;;;;73.13;30.85;;;;;;;15.91;46.63;91702.56;5052884;28;20041;-94
2022/11/17 06:34:47;;;;;;;61.35;29.42;;;;;;;15.90;47.28;91710.00;5035818;28;20048;-91
2022/11/17 06:37:18;;;;;;;85.82;36.92;;;;;;;15.95;47.45;91703.69;5032664;28;20081;-93
2022/11/17 06:39:44;;;;;;;96.70;46.42;;;;;;;15.96;47.57;91705.13;5062851;28;20047;-89
2022/11/17 06:42:09;;;;;;;105.38;52.08;;;;;;;16.00;47.70;91702.06;5057170;28;20040;-89
2022/11/17 06:44:35;;;;;;;93.68;48.53;;;;;;;16.01;48.15;91700.81;5060901;28;20047;-89
2022/11/17 06:47:01;;;;;;;135.50;61.72;;;;;;;15.97;48.17;91695.69;5029378;28;20074;-89
2022/11/17 06:49:27;;;;;;;89.38;43.35;;;;;;;15.97;47.10;91705.88;5046615;28;20333;-89
2022/11/17 06:51:52;;;;;;;81.15;33.78;;;;;;;15.87;45.80;91702.16;5037293;28;20040;-90
2022/11/17 06:54:18;;;;;;;76.78;31.05;;;;;;;15.86;46.14;91698.72;5019919;28;20036;-89
2022/11/17 06:56:43;;;;;;;88.10;34.25;;;;;;;15.88;46.43;91692.72;5050494;28;20039;-88
2022/11/17 06:59:10;;;;;;;92.88;39.67;;;;;;;15.89;46.60;91686.00;5056143;28;20367;-86
2022/11/17 07:01:36;;;;;;;75.60;33.00;;;;;;;15.83;45.92;91694.31;5050127;28;20048;-88
2022/11/17 07:04:01;;;;;;;48.10;22.90;;;;;;;15.80;44.98;91691.97;5033017;28;20047;-90
2022/11/17 07:06:27;;;;;;;176.77;37.30;;;;;;;15.80;45.43;91686.50;5033648;28;20060;-89
2022/11/17 07:08:52;;;;;;;110.97;32.60;;;;;;;15.86;46.10;91698.72;5031934;28;20049;-89
2022/11/17 07:11:18;;;;;;;103.43;37.10;;;;;;;15.93;46.37;91694.56;5032305;28;20032;-89
2022/11/17 07:13:43;;;;;;;148.13;71.97;;;;;;;15.97;45.86;91687.53;5047086;28;20044;-89
2022/11/17 07:16:13;;;;;;;84.40;40.08;;;;;;;16.00;45.94;91686.47;5051033;28;20391;-89
2022/11/17 07:18:41;;;;;;;95.63;41.65;;;;;;;16.02;46.16;91691.38;5051741;28;20523;-89
2022/11/17 07:21:09;;;;;;;90.50;42.53;;;;;;;16.06;46.91;91684.28;5049478;28;20043;-85
2022/11/17 07:23:34;;;;;;;96.68;43.60;;;;;;;16.08;47.15;91687.22;5043857;28;20037;-85
2022/11/17 07:26:00;;;;;;;96.05;47.60;;;;;;;16.13;46.90;91695.78;5054902;28;20055;-86
2022/11/17 07:28:26;;;;;;;98.93;47.72;;;;;;;16.10;47.47;91692.13;5021776;28;20383;-86
2022/11/17 07:30:51;;;;;;;111.88;48.92;;;;;;;16.11;47.25;91685.41;5038389;28;20043;-86
2022/11/17 07:33:17;;;;;;;82.57;42.03;;;;;;;16.08;47.29;91691.94;5044230;28;20086;-87
2022/11/17 07:35:42;;;;;;;91.65;46.97;;;;;;;16.10;47.06;91684.69;5049709;28;20032;-88
2022/11/17 07:38:08;;;;;;;105.93;48.45;;;;;;;16.09;47.11;91679.75;5044361;28;20031;-88
2022/11/17 07:40:33;;;;;;;92.88;44.63;;;;;;;16.09;47.21;91685.22;5019616;28;20046;-88
2022/11/17 07:42:59;;;;;;;108.53;50.47;;;;;;;16.07;47.22;91674.84;5032487;28;20877;-88
2022/11/17 07:45:26;;;;;;;96.28;51.13;;;;;;;16.06;47.57;91676.13;5053183;28;20567;-87
2022/11/17 07:47:55;;;;;;;126.55;57.13;;;;;;;16.02;47.48;91688.66;5025968;28;20040;-92
2022/11/17 07:50:21;;;;;;;122.30;53.15;;;;;;;16.03;47.19;91687.34;5030652;28;20036;-90
2022/11/17 07:52:48;;;;;;;94.85;47.90;;;;;;;16.02;47.56;91685.91;5028349;28;20036;-88
2022/11/17 07:55:14;;;;;;;116.40;54.17;;;;;;;16.07;47.45;91690.47;5050605;28;20128;-91
2022/11/17 07:57:39;;;;;;;117.85;52.03;;;;;;;16.07;47.41;91685.03;5031003;28;20039;-88
2022/11/17 08:00:05;;;;;;;98.65;52.75;;;;;;;16.07;47.41;91693.94;5052197;28;20024;-89
2022/11/17 08:02:31;;;;;;;102.45;52.78;;;;;;;16.07;47.63;91693.94;5036747;28;20036;-91
2022/11/17 08:04:56;;;;;;;125.13;55.92;;;;;;;16.07;47.62;91691.19;5045432;28;20093;-90
2022/11/17 08:07:22;;;;;;;179.88;68.80;;;;;;;16.07;47.45;91693.94;5033658;28;20130;-90
2022/11/17 08:09:47;;;;;;;141.82;63.80;;;;;;;16.05;48.14;91688.28;5059429;28;20653;-89
2022/11/17 08:12:13;;;;;;;141.00;63.90;;;;;;;16.10;47.90;91701.03;5058759;28;20036;-89
2022/11/17 08:14:38;;;;;;;168.65;79.22;;;;;;;16.06;48.04;91703.38;5056738;28;20122;-89
2022/11/17 08:17:04;;;;;;;173.68;83.95;;;;;;;16.06;47.66;91697.19;5036600;28;20040;-88
2022/11/17 08:19:31;;;;;;;156.75;80.53;;;;;;;16.07;48.51;91698.66;5042836;28;20135;-90
2022/11/17 08:21:56;;;;;;;184.32;89.47;;;;;;;16.08;48.24;91698.13;5044676;28;20032;-90
2022/11/17 08:24:22;;;;;;;190.48;96.85;;;;;;;16.09;48.21;91704.28;5041866;28;20389;-91
2022/11/17 08:26:48;;;;;;;199.27;104.05;;;;;;;16.09;47.90;91699.56;5062190;28;20033;-90
2022/11/17 08:29:13;;;;;;;175.55;93.57;;;;;;;16.11;47.70;91702.50;5051523;28;20043;-90
2022/11/17 08:31:45;;;;;;;186.40;91.90;;;;;;;16.12;47.81;91705.94;5039504;28;20051;-92
2022/11/17 08:34:11;;;;;;;216.02;106.30;;;;;;;16.13;47.81;91706.69;5032768;28;20505;-90
2022/11/17 08:36:36;;;;;;;183.45;94.15;;;;;;;16.11;48.28;91705.22;5040425;28;20096;-90
2022/11/17 08:39:02;;;;;;;191.30;102.05;;;;;;;16.11;47.92;91701.75;5055136;28;20086;-89
2022/11/17 08:41:27;;;;;;;179.13;93.70;;;;;;;16.10;47.88;91711.94;5055683;28;20545;-89
2022/11/17 08:43:53;;;;;;;185.88;98.82;;;;;;;16.11;47.94;91710.66;5041182;28;20719;-89
2022/11/17 08:46:19;;;;;;;199.43;107.32;;;;;;;16.15;47.95;91717.78;5040180;28;20097;-90
2022/11/17 08:48:46;;;;;;;222.48;82.45;;;;;;;16.09;46.96;91718.66;5040408;28;20033;-90
2022/11/17 08:51:11;;;;;;;121.40;57.35;;;;;;;16.02;46.71;91719.31;5043472;28;20039;-88
2022/11/17 08:53:38;;;;;;;97.50;45.40;;;;;;;16.01;46.50;91720.63;5046605;28;20032;-88
2022/11/17 08:56:07;;;;;;;104.28;46.53;;;;;;;15.98;47.12;91716.25;5037373;28;20051;-91
2022/11/17 08:58:40;;;;;;;111.00;50.13;;;;;;;16.00;47.16;91712.97;5039793;28;20098;-93
2022/11/17 09:01:07;;;;;;;139.52;67.90;;;;;;;16.02;47.29;91721.34;5049429;28;20041;-90
2022/11/17 09:03:32;;;;;;;148.15;67.30;;;;;;;15.99;47.43;91728.59;5065292;28;20145;-93
2022/11/17 09:05:58;;;;;;;143.48;66.72;;;;;;;16.01;47.32;91742.44;5043511;28;20281;-94
2022/11/17 09:08:24;;;;;;;149.20;67.55;;;;;;;16.03;47.88;91758.22;5049280;28;20107;-90
2022/11/17 09:10:50;;;;;;;163.20;76.63;;;;;;;16.03;47.86;91760.94;5055700;28;20055;-90
2022/11/17 09:13:16;;;;;;;154.80;76.22;;;;;;;16.05;48.13;91742.06;5036255;28;20051;-91
2022/11/17 09:15:41;;;;;;;168.02;83.75;;;;;;;16.03;48.23;91755.50;5058054;28;20048;-91
2022/11/17 09:18:07;;;;;;;183.20;83.88;;;;;;;16.07;48.46;91756.63;5038924;28;20043;-90
2022/11/17 09:20:32;;;;;;;201.18;97.05;;;;;;;16.08;47.93;91754.63;5038233;28;20029;-91
2022/11/17 09:22:59;;;;;;;201.52;99.93;;;;;;;16.10;48.44;91752.81;5041219;28;20244;-91
2022/11/17 09:25:24;;;;;;;208.68;114.63;;;;;;;16.10;48.44;91769.19;5067253;28;20032;-91
2022/11/17 09:27:56;;;;;;;218.07;115.97;;;;;;;16.11;48.21;91772.63;5057451;28;20058;-90
2022/11/17 09:30:22;;;;;;;177.55;89.43;;;;;;;16.12;47.87;91768.66;5035235;28;20617;-90
2022/11/17 09:32:48;;;;;;;179.93;90.22;;;;;;;16.10;48.15;91780.09;5053611;28;20078;-89
2022/11/17 09:35:13;;;;;;;134.07;71.60;;;;;;;16.08;48.88;91781.88;5030454;28;20047;-90
2022/11/17 09:37:39;;;;;;;133.50;68.28;;;;;;;16.09;48.58;91778.63;5058709;28;20047;-91
2022/11/17 09:40:05;;;;;;;141.77;70.05;;;;;;;16.11;48.51;91780.81;5029217;28;20060;-91
2022/11/17 09:42:36;;;;;;;155.07;78.05;;;;;;;16.08;48.91;91793.50;5046219;28;20582;-90
2022/11/17 09:45:04;;;;;;;152.50;80.53;;;;;;;16.11;48.36;91786.25;5052805;28;20060;-91
2022/11/17 09:47:55;;;;;;;149.57;73.03;;;;;;;16.08;48.52;91790.78;5037612;28;20044;-92
2022/11/17 09:50:33;;;;;;;146.05;76.50;;;;;;;16.08;48.51;91801.69;5050755;28;20467;-90
2022/11/17 09:53:25;;;;;;;136.32;72.25;;;;;;;16.11;48.99;91816.25;5064881;28;20506;-90
2022/11/17 09:55:54;;;;;;;227.57;115.75;;;;;;;16.10;48.92;91817.50;5030073;28;20036;-88
2022/11/17 09:58:36;;;;;;;188.38;99.32;;;;;;;16.13;48.77;91818.44;5043664;28;20059;-88
2022/11/17 10:01:01;;;;;;;198.98;103.97;;;;;;;16.13;49.34;91811.00;5028432;28;20474;-90
2022/11/17 10:03:33;;;;;;;184.70;99.10;;;;;;;16.15;49.36;91805.00;5029717;28;20072;-90
2022/11/17 10:05:59;;;;;;;188.35;98.82;;;;;;;16.16;49.15;91798.28;5047474;28;20124;-88
2022/11/17 10:08:34;;;;;;;207.65;114.15;;;;;;;16.16;48.68;91809.94;5049296;28;20037;-87
2022/11/17 10:11:30;;;;;;;189.88;100.13;;;;;;;16.17;48.66;91811.41;5035219;28;20072;-88
2022/11/17 10:13:48;;;;;;;185.95;97.43;;;;;;;16.13;48.43;91824.63;5045570;28;20042;-89
2022/11/17 10:16:13;;;;;;;154.98;81.25;;;;;;;16.11;48.60;91824.44;5036310;28;20427;-88
2022/11/17 10:18:39;;;;;;;161.65;85.85;;;;;;;16.13;49.24;91829.34;5037582;28;20107;-90
2022/11/17 10:21:06;;;;;;;156.40;79.28;;;;;;;16.13;48.50;91832.06;5068672;28;20111;-88
2022/11/17 10:23:42;;;;;;;158.77;82.82;;;;;;;16.13;48.98;91840.97;5049290;28;20032;-88
2022/11/17 10:26:09;;;;;;;161.20;87.18;;;;;;;16.17;48.50;91844.09;5057520;28;20036;-85
2022/11/17 10:28:35;;;;;;;143.40;78.00;;;;;;;16.15;48.69;91827.56;5058815;28;20491;-85
2022/11/17 10:31:03;;;;;;;151.05;80.15;;;;;;;16.12;48.46;91836.78;5053131;28;20134;-87
2022/11/17 10:33:46;;;;;;;147.43;67.28;;;;;;;16.08;48.26;91833.66;5045282;28;20036;-85
2022/11/17 10:36:21;;;;;;;122.55;57.85;;;;;;;16.08;48.73;91828.94;5059647;28;20437;-86
2022/11/17 10:38:51;;;;;;;145.10;63.67;;;;;;;16.08;48.36;91839.84;5045668;28;20114;-88
2022/11/17 10:41:22;;;;;;;113.47;59.73;;;;;;;16.05;48.64;91834.72;5043548;28;20058;-86
2022/11/17 10:43:58;;;;;;;128.82;57.53;;;;;;;16.02;48.98;91822.91;5054435;28;20305;-87
2022/11/17 10:46:24;;;;;;;147.73;62.28;;;;;;;16.07;48.96;91826.75;5049483;28;20044;-91
2022/11/17 10:48:59;;;;;;;164.93;67.10;;;;;;;16.09;48.42;91816.78;5048336;28;20113;-87
2022/11/17 10:51:27;;;;;;;138.80;69.13;;;;;;;16.10;48.52;91818.25;5033892;28;20047;-86
2022/11/17 10:54:07;;;;;;;142.82;72.30;;;;;;;16.10;48.70;91817.50;5053246;28;20044;-86
2022/11/17 10:56:38;;;;;;;173.88;99.13;;;;;;;16.13;49.01;91802.09;5071148;28;20037;-86
2022/11/17 10:59:07;;;;;;;231.57;122.80;;;;;;;16.13;48.80;91794.63;5048479;28;20040;-86
2022/11/17 11:01:35;;;;;;;242.82;127.75;;;;;;;16.15;48.53;91778.47;5098502;28;20052;-86
2022/11/17 11:04:01;;;;;;;247.25;129.57;;;;;;;16.16;48.55;91779.22;5052691;28;20097;-89
2022/11/17 11:06:28;;;;;;;245.75;125.50;;;;;;;16.14;48.93;91777.03;5025235;28;20075;-85
2022/11/17 11:09:04;;;;;;;213.65;110.68;;;;;;;16.13;49.23;91775.56;5027538;28;20059;-86
2022/11/17 11:11:48;;;;;;;201.98;103.53;;;;;;;16.15;49.14;91764.13;5016554;28;20041;-86
2022/11/17 11:14:29;;;;;;;191.57;108.35;;;;;;;16.18;49.06;91771.97;5039855;28;20045;-91
2022/11/17 11:16:55;;;;;;;179.95;100.72;;;;;;;16.16;48.91;91768.31;5031621;28;20024;-85
2022/11/17 11:19:20;;;;;;;185.70;98.00;;;;;;;16.18;48.65;91765.78;5034989;28;20047;-86
2022/11/17 11:22:03;;;;;;;160.35;91.28;;;;;;;16.16;49.35;91760.13;5015770;28;20458;-85
2022/11/17 11:24:38;;;;;;;159.27;92.97;;;;;;;16.15;48.93;91745.78;5033167;28;20041;-86
2022/11/17 11:27:14;;;;;;;160.48;95.28;;;;;;;16.16;48.99;91749.22;4997541;28;20037;-88
2022/11/17 11:29:58;;;;;;;135.18;81.25;;;;;;;16.18;48.78;91746.69;5025957;28;20139;-85
2022/11/17 11:32:51;;;;;;;138.95;84.68;;;;;;;16.17;48.94;91732.34;5035494;28;20562;-86
2022/11/17 11:35:29;;;;;;;317.50;255.30;;;;;;;16.20;48.90;91727.81;5053401;28;20052;-86
2022/11/17 11:38:20;;;;;;;262.80;191.18;;;;;;;16.20;48.57;91728.53;5052644;28;20032;-86
2022/11/17 11:41:12;;;;;;;146.82;87.40;;;;;;;16.20;48.85;91727.81;5039854;28;20119;-85
2022/11/17 11:43:55;;;;;;;131.82;76.35;;;;;;;16.20;48.70;91725.81;4978586;28;20794;-86
2022/11/17 11:46:58;;;;;;;125.03;72.80;;;;;;;16.20;49.20;91731.25;4992751;28;20152;-92
2022/11/17 11:49:47;;;;;;;125.25;73.53;;;;;;;16.20;49.23;91734.00;4990076;28;20101;-88
2022/11/17 11:52:19;;;;;;;107.20;66.78;;;;;;;16.20;48.85;91725.81;4958753;28;20039;-88
2022/11/17 11:54:50;;;;;;;125.97;64.82;;;;;;;16.22;49.10;91723.28;4974642;28;20038;-87
2022/11/17 11:57:17;;;;;;;122.20;65.07;;;;;;;16.21;48.84;91719.09;4993479;28;20074;-87